sensor_id;sensor_type;location;lat;lon;timestamp;P1;durP1;ratioP1;P2;durP2;ratioP2
2177;SDS011;1095;50.992;6.798;2023-04-25T18:31:32;10.95;;;3.35;;
2177;SDS011;1095;50.992;6.798;2023-04-25T18:34:00;6.35;;;4.00;;
2177;SDS011;1095;50.992;6.798;2023-04-25T18:36:27;9.35;;;3.97;;
2177;SDS011;1095;50.992;6.798;2023-04-25T18:38:54;6.32;;;3.67;;
2177;SDS011;1095;50.992;6.798;2023-04-25T18:41:21;6.28;;;3.65;;
2177;SDS011;1095;50.992;6.798;2023-04-25T18:43:49;9.73;;;3.75;;
2177;SDS011;1095;50.992;6.798;2023-04-25T18:46:15;5.88;;;3.15;;
2177;SDS011;1095;50.992;6.798;2023-04-25T18:48:47;6.15;;;3.63;;
2177;SDS011;1095;50.992;6.798;2023-04-25T18:51:14;6.93;;;3.80;;
2177;SDS011;1095;50.992;6.798;2023-04-25T18:53:41;7.75;;;4.10;;
2177;SDS011;1095;50.992;6.798;2023-04-25T18:56:08;13.23;;;4.82;;
2177;SDS011;1095;50.992;6.798;2023-04-25T18:58:34;10.98;;;4.50;;
2177;SDS011;1095;50.992;6.798;2023-04-25T19:01:01;8.50;;;4.30;;
2177;SDS011;1095;50.992;6.798;2023-04-25T19:03:28;9.02;;;4.13;;
2177;SDS011;1095;50.992;6.798;2023-04-25T19:05:56;8.90;;;4.75;;
2177;SDS011;1095;50.992;6.798;2023-04-25T19:08:23;13.25;;;4.63;;
2177;SDS011;1095;50.992;6.798;2023-04-25T19:10:50;8.57;;;3.97;;
2177;SDS011;1095;50.992;6.798;2023-04-25T19:13:17;6.38;;;3.58;;
2177;SDS011;1095;50.992;6.798;2023-04-25T19:15:44;8.35;;;4.10;;
2177;SDS011;1095;50.992;6.798;2023-04-25T19:18:11;7.68;;;4.03;;
2177;SDS011;1095;50.992;6.798;2023-04-25T19:20:38;7.80;;;4.32;;
2177;SDS011;1095;50.992;6.798;2023-04-25T19:23:06;12.57;;;5.88;;
2177;SDS011;1095;50.992;6.798;2023-04-25T19:25:34;9.10;;;3.88;;
2177;SDS011;1095;50.992;6.798;2023-04-25T19:28:01;9.48;;;3.70;;
2177;SDS011;1095;50.992;6.798;2023-04-25T19:30:28;7.00;;;3.35;;
2177;SDS011;1095;50.992;6.798;2023-04-25T19:32:55;7.97;;;3.65;;
2177;SDS011;1095;50.992;6.798;2023-04-25T19:35:22;8.55;;;4.00;;
2177;SDS011;1095;50.992;6.798;2023-04-25T19:37:54;6.97;;;3.83;;
2177;SDS011;1095;50.992;6.798;2023-04-25T19:40:22;7.80;;;3.70;;
2177;SDS011;1095;50.992;6.798;2023-04-25T19:42:50;10.15;;;4.00;;
2177;SDS011;1095;50.992;6.798;2023-04-25T19:45:16;5.85;;;3.55;;
2177;SDS011;1095;50.992;6.798;2023-04-25T19:47:43;12.23;;;4.38;;
2177;SDS011;1095;50.992;6.798;2023-04-25T19:50:10;8.15;;;3.75;;
2177;SDS011;1095;50.992;6.798;2023-04-25T19:52:37;9.07;;;4.10;;
2177;SDS011;1095;50.992;6.798;2023-04-25T19:55:04;6.90;;;3.75;;
2177;SDS011;1095;50.992;6.798;2023-04-25T19:57:34;9.50;;;3.78;;
2177;SDS011;1095;50.992;6.798;2023-04-25T20:00:02;6.47;;;3.72;;
2177;SDS011;1095;50.992;6.798;2023-04-25T20:02:33;10.02;;;4.53;;
2177;SDS011;1095;50.992;6.798;2023-04-25T20:04:59;10.20;;;4.22;;
2177;SDS011;1095;50.992;6.798;2023-04-25T20:07:26;9.00;;;4.30;;
2177;SDS011;1095;50.992;6.798;2023-04-25T20:09:53;6.97;;;3.97;;
2177;SDS011;1095;50.992;6.798;2023-04-25T20:12:19;9.35;;;4.32;;
2177;SDS011;1095;50.992;6.798;2023-04-25T20:14:47;7.45;;;3.90;;
2177;SDS011;1095;50.992;6.798;2023-04-25T20:17:14;8.93;;;4.60;;
2177;SDS011;1095;50.992;6.798;2023-04-25T20:19:40;9.73;;;4.82;;
2177;SDS011;1095;50.992;6.798;2023-04-25T20:22:07;8.30;;;4.68;;
2177;SDS011;1095;50.992;6.798;2023-04-25T20:24:34;10.35;;;4.32;;
2177;SDS011;1095;50.992;6.798;2023-04-25T20:27:01;9.55;;;4.35;;
2177;SDS011;1095;50.992;6.798;2023-04-25T20:29:28;10.82;;;4.60;;
2177;SDS011;1095;50.992;6.798;2023-04-25T20:31:57;10.07;;;4.30;;
2177;SDS011;1095;50.992;6.798;2023-04-25T20:34:24;7.80;;;4.15;;
2177;SDS011;1095;50.992;6.798;2023-04-25T20:36:53;7.63;;;4.13;;
2177;SDS011;1095;50.992;6.798;2023-04-25T20:39:21;8.18;;;4.15;;
2177;SDS011;1095;50.992;6.798;2023-04-25T20:41:49;9.77;;;4.53;;
2177;SDS011;1095;50.992;6.798;2023-04-25T20:44:15;8.13;;;3.80;;
2177;SDS011;1095;50.992;6.798;2023-04-25T20:46:44;9.18;;;4.22;;
2177;SDS011;1095;50.992;6.798;2023-04-25T20:49:11;12.00;;;4.40;;
2177;SDS011;1095;50.992;6.798;2023-04-25T20:51:38;7.97;;;4.60;;
2177;SDS011;1095;50.992;6.798;2023-04-25T20:54:05;10.05;;;4.65;;
2177;SDS011;1095;50.992;6.798;2023-04-25T20:56:31;10.63;;;4.80;;
2177;SDS011;1095;50.992;6.798;2023-04-25T20:58:58;9.52;;;4.50;;
2177;SDS011;1095;50.992;6.798;2023-04-25T21:01:25;7.47;;;4.75;;
2177;SDS011;1095;50.992;6.798;2023-04-25T21:03:51;9.77;;;4.65;;
2177;SDS011;1095;50.992;6.798;2023-04-25T21:06:20;8.43;;;4.30;;
2177;SDS011;1095;50.992;6.798;2023-04-25T21:08:46;11.68;;;4.72;;
2177;SDS011;1095;50.992;6.798;2023-04-25T21:11:13;11.00;;;4.30;;
2177;SDS011;1095;50.992;6.798;2023-04-25T21:13:40;11.27;;;4.57;;
2177;SDS011;1095;50.992;6.798;2023-04-25T21:16:06;10.02;;;4.57;;
2177;SDS011;1095;50.992;6.798;2023-04-25T21:18:33;10.70;;;4.60;;
2177;SDS011;1095;50.992;6.798;2023-04-25T21:21:00;11.00;;;4.68;;
2177;SDS011;1095;50.992;6.798;2023-04-25T21:23:29;9.93;;;4.40;;
2177;SDS011;1095;50.992;6.798;2023-04-25T21:25:56;9.20;;;4.22;;
2177;SDS011;1095;50.992;6.798;2023-04-25T21:28:23;11.43;;;5.00;;
2177;SDS011;1095;50.992;6.798;2023-04-25T21:30:50;6.90;;;4.22;;
2177;SDS011;1095;50.992;6.798;2023-04-25T21:33:17;9.63;;;4.63;;
2177;SDS011;1095;50.992;6.798;2023-04-25T21:35:44;10.90;;;4.32;;
2177;SDS011;1095;50.992;6.798;2023-04-25T21:38:11;11.80;;;4.38;;
2177;SDS011;1095;50.992;6.798;2023-04-25T21:40:40;8.73;;;4.15;;
2177;SDS011;1095;50.992;6.798;2023-04-25T21:43:06;10.73;;;5.07;;
2177;SDS011;1095;50.992;6.798;2023-04-25T21:45:33;9.38;;;4.22;;
2177;SDS011;1095;50.992;6.798;2023-04-25T21:48:00;6.97;;;4.10;;
2177;SDS011;1095;50.992;6.798;2023-04-25T21:50:26;10.50;;;4.68;;
2177;SDS011;1095;50.992;6.798;2023-04-25T21:52:53;7.68;;;4.35;;
2177;SDS011;1095;50.992;6.798;2023-04-25T21:55:23;10.80;;;4.63;;
2177;SDS011;1095;50.992;6.798;2023-04-25T21:57:51;9.95;;;4.65;;
2177;SDS011;1095;50.992;6.798;2023-04-25T22:00:18;8.55;;;4.50;;
2177;SDS011;1095;50.992;6.798;2023-04-25T22:02:48;10.27;;;4.43;;
2177;SDS011;1095;50.992;6.798;2023-04-25T22:05:16;9.02;;;4.43;;
2177;SDS011;1095;50.992;6.798;2023-04-25T22:07:44;9.55;;;4.70;;
2177;SDS011;1095;50.992;6.798;2023-04-25T22:10:11;10.25;;;5.03;;
2177;SDS011;1095;50.992;6.798;2023-04-25T22:12:37;12.25;;;5.07;;
2177;SDS011;1095;50.992;6.798;2023-04-25T22:15:06;11.75;;;4.50;;
2177;SDS011;1095;50.992;6.798;2023-04-25T22:17:34;11.15;;;4.93;;
2177;SDS011;1095;50.992;6.798;2023-04-25T22:20:00;13.50;;;4.68;;
2177;SDS011;1095;50.992;6.798;2023-04-25T22:22:33;10.48;;;4.72;;
2177;SDS011;1095;50.992;6.798;2023-04-25T22:25:00;9.98;;;4.65;;
2177;SDS011;1095;50.992;6.798;2023-04-25T22:27:27;10.18;;;4.78;;
2177;SDS011;1095;50.992;6.798;2023-04-25T22:29:53;9.07;;;5.15;;
2177;SDS011;1095;50.992;6.798;2023-04-25T22:32:21;9.45;;;5.00;;
2177;SDS011;1095;50.992;6.798;2023-04-25T22:34:48;11.77;;;4.85;;
2177;SDS011;1095;50.992;6.798;2023-04-25T22:37:14;9.75;;;4.60;;
2177;SDS011;1095;50.992;6.798;2023-04-25T22:39:41;11.40;;;4.50;;
2177;SDS011;1095;50.992;6.798;2023-04-25T22:42:08;9.63;;;4.60;;
2177;SDS011;1095;50.992;6.798;2023-04-25T22:44:34;8.10;;;4.55;;
2177;SDS011;1095;50.992;6.798;2023-04-25T22:47:01;9.05;;;4.63;;
2177;SDS011;1095;50.992;6.798;2023-04-25T22:49:29;11.57;;;4.70;;
2177;SDS011;1095;50.992;6.798;2023-04-25T22:51:55;9.07;;;4.75;;
2177;SDS011;1095;50.992;6.798;2023-04-25T22:54:22;7.72;;;4.60;;
2177;SDS011;1095;50.992;6.798;2023-04-25T22:56:49;13.73;;;5.40;;
2177;SDS011;1095;50.992;6.798;2023-04-25T23:16:07;9.52;;;5.20;;
2177;SDS011;1095;50.992;6.798;2023-04-25T23:18:35;10.77;;;5.57;;
2177;SDS011;1095;50.992;6.798;2023-04-25T23:21:03;14.68;;;5.68;;
2177;SDS011;1095;50.992;6.798;2023-04-25T23:23:31;18.10;;;5.88;;
2177;SDS011;1095;50.992;6.798;2023-04-25T23:25:58;11.18;;;5.15;;
2177;SDS011;1095;50.992;6.798;2023-04-25T23:28:24;11.85;;;6.00;;
2177;SDS011;1095;50.992;6.798;2023-04-25T23:30:51;15.77;;;5.57;;
2177;SDS011;1095;50.992;6.798;2023-04-25T23:33:19;10.73;;;5.47;;
2177;SDS011;1095;50.992;6.798;2023-04-25T23:35:45;12.63;;;5.88;;
2177;SDS011;1095;50.992;6.798;2023-04-25T23:38:12;13.10;;;6.18;;
2177;SDS011;1095;50.992;6.798;2023-04-25T23:40:40;14.10;;;6.32;;
2177;SDS011;1095;50.992;6.798;2023-04-25T23:43:07;10.05;;;5.40;;
2177;SDS011;1095;50.992;6.798;2023-04-25T23:45:33;16.95;;;6.68;;
2177;SDS011;1095;50.992;6.798;2023-04-25T23:48:00;17.27;;;5.55;;
